sensor_id;sensor_type;location;lat;lon;timestamp;pressure;altitude;pressure_sealevel;temperature;humidity
73457;BME280;61691;53.072;6.582;2023-08-31T00:01:01;100627.13;;;12.33;77.86
73457;BME280;61691;53.072;6.582;2023-08-31T00:03:28;100599.59;;;12.16;78.18
73457;BME280;61691;53.072;6.582;2023-08-31T00:05:55;100639.00;;;12.38;77.93
73457;BME280;61691;53.072;6.582;2023-08-31T00:08:23;100608.78;;;12.22;78.16
73457;BME280;61691;53.072;6.582;2023-08-31T00:10:59;100628.38;;;12.38;78.38
73457;BME280;61691;53.072;6.582;2023-08-31T00:13:29;100625.25;;;12.43;78.13
73457;BME280;61691;53.072;6.582;2023-08-31T00:15:56;100611.03;;;12.34;78.40
73457;BME280;61691;53.072;6.582;2023-08-31T00:18:25;100624.97;;;12.46;78.43
73457;BME280;61691;53.072;6.582;2023-08-31T00:20:52;100613.94;;;12.41;78.21
73457;BME280;61691;53.072;6.582;2023-08-31T00:23:18;100609.53;;;12.32;78.71
73457;BME280;61691;53.072;6.582;2023-08-31T00:25:48;100597.25;;;12.31;78.29
73457;BME280;61691;53.072;6.582;2023-08-31T00:28:15;100612.81;;;12.44;78.55
73457;BME280;61691;53.072;6.582;2023-08-31T00:30:45;100576.88;;;12.22;78.42
73457;BME280;61691;53.072;6.582;2023-08-31T00:33:13;100607.47;;;12.44;78.50
73457;BME280;61691;53.072;6.582;2023-08-31T00:35:41;100598.91;;;12.32;78.50
73457;BME280;61691;53.072;6.582;2023-08-31T00:38:13;100583.56;;;12.26;78.76
73457;BME280;61691;53.072;6.582;2023-08-31T00:40:44;100606.97;;;12.40;78.36
73457;BME280;61691;53.072;6.582;2023-08-31T00:43:14;100606.97;;;12.40;78.24
73457;BME280;61691;53.072;6.582;2023-08-31T00:45:50;100585.91;;;12.29;78.59
73457;BME280;61691;53.072;6.582;2023-08-31T00:48:17;100547.81;;;12.02;78.24
73457;BME280;61691;53.072;6.582;2023-08-31T00:50:45;100562.69;;;12.13;78.38
73457;BME280;61691;53.072;6.582;2023-08-31T00:53:13;100595.84;;;12.27;78.70
73457;BME280;61691;53.072;6.582;2023-08-31T00:55:40;100586.66;;;12.21;78.70
73457;BME280;61691;53.072;6.582;2023-08-31T00:58:07;100605.50;;;12.28;78.38
73457;BME280;61691;53.072;6.582;2023-08-31T01:00:43;100608.72;;;12.31;78.32
73457;BME280;61691;53.072;6.582;2023-08-31T01:03:13;100600.50;;;12.25;78.34
73457;BME280;61691;53.072;6.582;2023-08-31T01:08:50;100578.69;;;12.03;78.42
73457;BME280;61691;53.072;6.582;2023-08-31T01:14:02;100612.03;;;12.16;78.07
73457;BME280;61691;53.072;6.582;2023-08-31T01:16:35;100604.34;;;12.13;78.17
73457;BME280;61691;53.072;6.582;2023-08-31T01:19:57;100605.78;;;12.07;78.47
73457;BME280;61691;53.072;6.582;2023-08-31T01:22:00;100611.41;;;12.04;78.30
73457;BME280;61691;53.072;6.582;2023-08-31T01:24:31;100579.66;;;11.85;78.30
73457;BME280;61691;53.072;6.582;2023-08-31T01:26:58;100530.59;;;11.52;77.92
73457;BME280;61691;53.072;6.582;2023-08-31T01:29:25;100594.16;;;11.90;78.51
73457;BME280;61691;53.072;6.582;2023-08-31T01:31:52;100589.28;;;11.86;78.06
73457;BME280;61691;53.072;6.582;2023-08-31T01:34:19;100598.25;;;11.85;78.02
73457;BME280;61691;53.072;6.582;2023-08-31T01:36:51;100583.88;;;11.78;78.25
73457;BME280;61691;53.072;6.582;2023-08-31T01:42:08;100597.56;;;11.73;78.31
73457;BME280;61691;53.072;6.582;2023-08-31T01:44:36;100587.53;;;11.67;78.04
73457;BME280;61691;53.072;6.582;2023-08-31T01:47:05;100592.84;;;11.67;78.14
73457;BME280;61691;53.072;6.582;2023-08-31T01:49:39;100581.97;;;11.60;78.00
73457;BME280;61691;53.072;6.582;2023-08-31T01:52:06;100585.09;;;11.56;78.43
73457;BME280;61691;53.072;6.582;2023-08-31T01:54:33;100601.53;;;11.59;78.35
73457;BME280;61691;53.072;6.582;2023-08-31T01:57:00;100584.16;;;11.47;78.32
73457;BME280;61691;53.072;6.582;2023-08-31T01:59:29;100590.72;;;11.43;78.08
73457;BME280;61691;53.072;6.582;2023-08-31T02:01:56;100591.84;;;11.41;78.01
73457;BME280;61691;53.072;6.582;2023-08-31T02:04:23;100569.00;;;11.20;78.08
73457;BME280;61691;53.072;6.582;2023-08-31T02:06:49;100569.00;;;11.20;78.10
73457;BME280;61691;53.072;6.582;2023-08-31T02:09:16;100595.38;;;11.32;78.08
73457;BME280;61691;53.072;6.582;2023-08-31T02:11:42;100598.03;;;11.32;78.25
73457;BME280;61691;53.072;6.582;2023-08-31T02:14:09;100598.31;;;11.29;78.15
73457;BME280;61691;53.072;6.582;2023-08-31T02:16:36;100589.97;;;11.23;78.14
73457;BME280;61691;53.072;6.582;2023-08-31T02:19:03;100592.75;;;11.22;78.47
73457;BME280;61691;53.072;6.582;2023-08-31T02:21:29;100589.38;;;11.30;78.04
73457;BME280;61691;53.072;6.582;2023-08-31T02:23:56;100589.13;;;11.23;78.21
73457;BME280;61691;53.072;6.582;2023-08-31T02:26:23;100596.94;;;11.24;78.17
73457;BME280;61691;53.072;6.582;2023-08-31T02:28:49;100577.97;;;11.19;78.08
73457;BME280;61691;53.072;6.582;2023-08-31T02:31:17;100546.50;;;10.97;78.32
73457;BME280;61691;53.072;6.582;2023-08-31T02:33:45;100576.31;;;11.18;78.24
73457;BME280;61691;53.072;6.582;2023-08-31T02:36:12;100564.59;;;11.11;78.35
73457;BME280;61691;53.072;6.582;2023-08-31T02:38:39;100559.56;;;11.08;78.40
73457;BME280;61691;53.072;6.582;2023-08-31T02:41:05;100580.63;;;11.19;78.40
73457;BME280;61691;53.072;6.582;2023-08-31T02:43:32;100585.34;;;11.25;78.26
73457;BME280;61691;53.072;6.582;2023-08-31T02:46:02;100579.63;;;11.20;78.69
73457;BME280;61691;53.072;6.582;2023-08-31T02:48:31;100564.72;;;11.19;78.47
73457;BME280;61691;53.072;6.582;2023-08-31T02:50:59;100584.38;;;11.27;78.76
73457;BME280;61691;53.072;6.582;2023-08-31T02:53:30;100573.91;;;11.15;78.60
73457;BME280;61691;53.072;6.582;2023-08-31T02:55:57;100543.66;;;10.99;78.71
73457;BME280;61691;53.072;6.582;2023-08-31T02:58:24;100578.25;;;11.16;78.51
73457;BME280;61691;53.072;6.582;2023-08-31T03:00:51;100576.56;;;11.15;78.96
73457;BME280;61691;53.072;6.582;2023-08-31T03:03:18;100551.78;;;10.97;78.85
73457;BME280;61691;53.072;6.582;2023-08-31T03:05:45;100559.59;;;10.99;78.67
73457;BME280;61691;53.072;6.582;2023-08-31T03:08:12;100578.84;;;11.10;78.93
73457;BME280;61691;53.072;6.582;2023-08-31T03:10:40;100549.81;;;10.99;79.22
73457;BME280;61691;53.072;6.582;2023-08-31T03:13:07;100580.50;;;11.11;79.23
73457;BME280;61691;53.072;6.582;2023-08-31T03:15:34;100568.50;;;11.07;79.04
73457;BME280;61691;53.072;6.582;2023-08-31T03:18:01;100577.03;;;11.11;79.37
73457;BME280;61691;53.072;6.582;2023-08-31T03:20:28;100563.19;;;11.07;79.59
73457;BME280;61691;53.072;6.582;2023-08-31T03:22:55;100545.91;;;11.03;79.42
73457;BME280;61691;53.072;6.582;2023-08-31T03:25:21;100586.59;;;11.21;79.40
73457;BME280;61691;53.072;6.582;2023-08-31T03:27:48;100581.72;;;11.27;79.52
73457;BME280;61691;53.072;6.582;2023-08-31T03:30:15;100584.06;;;11.30;79.83
73457;BME280;61691;53.072;6.582;2023-08-31T03:32:42;100586.56;;;11.31;79.90
73457;BME280;61691;53.072;6.582;2023-08-31T03:35:09;100576.25;;;11.28;79.50
73457;BME280;61691;53.072;6.582;2023-08-31T03:37:36;100576.53;;;11.35;79.87
73457;BME280;61691;53.072;6.582;2023-08-31T03:40:03;100580.66;;;11.47;79.95
73457;BME280;61691;53.072;6.582;2023-08-31T03:42:34;100579.78;;;11.56;80.10
73457;BME280;61691;53.072;6.582;2023-08-31T03:45:01;100585.19;;;11.64;80.32
73457;BME280;61691;53.072;6.582;2023-08-31T03:47:30;100564.22;;;11.61;80.12
73457;BME280;61691;53.072;6.582;2023-08-31T03:49:57;100553.75;;;11.59;79.95
73457;BME280;61691;53.072;6.582;2023-08-31T03:52:23;100559.16;;;11.68;80.04
73457;BME280;61691;53.072;6.582;2023-08-31T03:54:51;100587.47;;;11.86;80.04
73457;BME280;61691;53.072;6.582;2023-08-31T03:57:18;100580.91;;;11.81;79.95
73457;BME280;61691;53.072;6.582;2023-08-31T03:59:46;100594.47;;;11.87;80.16
73457;BME280;61691;53.072;6.582;2023-08-31T04:02:13;100595.28;;;11.88;80.21
73457;BME280;61691;53.072;6.582;2023-08-31T04:04:39;100589.16;;;11.87;79.85
73457;BME280;61691;53.072;6.582;2023-08-31T04:07:06;100582.22;;;11.77;80.02
73457;BME280;61691;53.072;6.582;2023-08-31T04:09:33;100578.03;;;11.74;80.30
73457;BME280;61691;53.072;6.582;2023-08-31T04:12:00;100567.00;;;11.69;80.21
73457;BME280;61691;53.072;6.582;2023-08-31T04:14:27;100524.81;;;11.39;80.37
73457;BME280;61691;53.072;6.582;2023-08-31T04:16:54;100589.72;;;11.81;80.22
73457;BME280;61691;53.072;6.582;2023-08-31T04:19:21;100572.16;;;11.71;80.72
73457;BME280;61691;53.072;6.582;2023-08-31T04:21:48;100600.06;;;11.84;80.11
73457;BME280;61691;53.072;6.582;2023-08-31T04:24:15;100600.75;;;11.86;80.38
73457;BME280;61691;53.072;6.582;2023-08-31T04:26:43;100612.59;;;11.92;80.87
73457;BME280;61691;53.072;6.582;2023-08-31T04:29:11;100543.59;;;11.55;80.48
73457;BME280;61691;53.072;6.582;2023-08-31T04:31:37;100583.06;;;11.77;80.82
73457;BME280;61691;53.072;6.582;2023-08-31T04:34:05;100600.00;;;11.94;80.66
73457;BME280;61691;53.072;6.582;2023-08-31T04:36:33;100595.03;;;11.81;80.67
73457;BME280;61691;53.072;6.582;2023-08-31T04:39:00;100604.91;;;11.89;80.38
73457;BME280;61691;53.072;6.582;2023-08-31T04:41:27;100593.66;;;11.77;80.80
73457;BME280;61691;53.072;6.582;2023-08-31T04:43:54;100598.00;;;11.78;81.10
73457;BME280;61691;53.072;6.582;2023-08-31T04:46:20;100606.34;;;11.83;81.00
73457;BME280;61691;53.072;6.582;2023-08-31T04:48:47;100607.66;;;11.79;81.04
73457;BME280;61691;53.072;6.582;2023-08-31T04:51:34;100609.00;;;11.83;81.05
73457;BME280;61691;53.072;6.582;2023-08-31T04:54:01;100612.34;;;11.85;81.05
73457;BME280;61691;53.072;6.582;2023-08-31T04:56:31;100626.75;;;11.83;81.02
73457;BME280;61691;53.072;6.582;2023-08-31T04:59:01;100592.31;;;11.63;81.04
73457;BME280;61691;53.072;6.582;2023-08-31T05:01:29;100597.31;;;11.67;81.08
73457;BME280;61691;53.072;6.582;2023-08-31T05:03:56;100618.28;;;11.79;81.11
73457;BME280;61691;53.072;6.582;2023-08-31T05:06:24;100620.38;;;11.76;81.50
73457;BME280;61691;53.072;6.582;2023-08-31T05:08:51;100645.22;;;11.84;81.17
73457;BME280;61691;53.072;6.582;2023-08-31T05:11:17;100642.28;;;11.87;81.35
73457;BME280;61691;53.072;6.582;2023-08-31T05:13:44;100628.44;;;11.84;81.27
73457;BME280;61691;53.072;6.582;2023-08-31T05:16:11;100630.94;;;11.85;81.67
73457;BME280;61691;53.072;6.582;2023-08-31T05:18:38;100638.69;;;11.96;81.43
73457;BME280;61691;53.072;6.582;2023-08-31T05:21:06;100645.78;;;12.06;81.69
73457;BME280;61691;53.072;6.582;2023-08-31T05:23:33;100641.72;;;12.29;82.15
73457;BME280;61691;53.072;6.582;2023-08-31T05:26:00;100653.84;;;12.76;82.84
73457;BME280;61691;53.072;6.582;2023-08-31T05:28:28;100625.63;;;13.09;82.89
73457;BME280;61691;53.072;6.582;2023-08-31T05:30:59;100637.19;;;13.78;82.60
73457;BME280;61691;53.072;6.582;2023-08-31T05:33:27;100653.94;;;14.46;81.74
73457;BME280;61691;53.072;6.582;2023-08-31T05:35:55;100654.16;;;14.85;80.47
73457;BME280;61691;53.072;6.582;2023-08-31T05:38:22;100655.47;;;14.97;79.13
73457;BME280;61691;53.072;6.582;2023-08-31T05:40:50;100605.78;;;14.64;78.16
73457;BME280;61691;53.072;6.582;2023-08-31T05:43:16;100668.66;;;14.91;77.58
73457;BME280;61691;53.072;6.582;2023-08-31T05:45:43;100669.00;;;14.80;77.45
73457;BME280;61691;53.072;6.582;2023-08-31T05:48:10;100666.47;;;14.62;76.83
73457;BME280;61691;53.072;6.582;2023-08-31T05:50:37;100653.94;;;14.46;76.35
73457;BME280;61691;53.072;6.582;2023-08-31T05:53:04;100668.63;;;14.42;76.54
73457;BME280;61691;53.072;6.582;2023-08-31T05:55:32;100680.28;;;14.49;76.16
73457;BME280;61691;53.072;6.582;2023-08-31T05:57:59;100636.03;;;14.22;76.74
73457;BME280;61691;53.072;6.582;2023-08-31T06:00:27;100676.44;;;14.44;76.21
73457;BME280;61691;53.072;6.582;2023-08-31T06:02:54;100681.44;;;14.47;76.22
73457;BME280;61691;53.072;6.582;2023-08-31T06:05:21;100655.38;;;14.32;76.17
73457;BME280;61691;53.072;6.582;2023-08-31T06:07:48;100696.78;;;14.53;76.21
73457;BME280;61691;53.072;6.582;2023-08-31T06:10:15;100665.28;;;14.40;76.06
73457;BME280;61691;53.072;6.582;2023-08-31T06:12:42;100683.63;;;14.59;75.91
73457;BME280;61691;53.072;6.582;2023-08-31T06:15:09;100706.19;;;14.73;75.69
73457;BME280;61691;53.072;6.582;2023-08-31T06:17:36;100703.34;;;14.83;75.67
73457;BME280;61691;53.072;6.582;2023-08-31T06:20:02;100702.19;;;14.85;75.77
73457;BME280;61691;53.072;6.582;2023-08-31T06:22:32;100685.84;;;14.80;75.59
73457;BME280;61691;53.072;6.582;2023-08-31T06:24:59;100685.19;;;14.86;75.41
73457;BME280;61691;53.072;6.582;2023-08-31T06:27:26;100701.22;;;15.10;75.34
73457;BME280;61691;53.072;6.582;2023-08-31T06:29:52;100701.84;;;15.21;75.31
73457;BME280;61691;53.072;6.582;2023-08-31T06:32:19;100732.38;;;15.42;75.51
73457;BME280;61691;53.072;6.582;2023-08-31T06:34:46;100642.13;;;15.14;74.68
73457;BME280;61691;53.072;6.582;2023-08-31T06:37:13;100712.84;;;15.74;74.62
73457;BME280;61691;53.072;6.582;2023-08-31T06:39:40;100706.06;;;15.95;74.98
73457;BME280;61691;53.072;6.582;2023-08-31T06:42:07;100731.97;;;16.41;74.70
73457;BME280;61691;53.072;6.582;2023-08-31T06:44:34;100704.03;;;16.75;74.18
73457;BME280;61691;53.072;6.582;2023-08-31T06:47:01;100704.25;;;17.33;73.36
73457;BME280;61691;53.072;6.582;2023-08-31T06:49:28;100725.22;;;18.11;72.48
73457;BME280;61691;53.072;6.582;2023-08-31T06:51:54;100734.41;;;18.89;71.45
73457;BME280;61691;53.072;6.582;2023-08-31T06:54:21;100743.75;;;19.57;70.06
73457;BME280;61691;53.072;6.582;2023-08-31T06:56:48;100728.41;;;20.20;68.79
73457;BME280;61691;53.072;6.582;2023-08-31T06:59:15;100731.81;;;20.89;68.10
73457;BME280;61691;53.072;6.582;2023-08-31T07:01:42;100734.38;;;21.50;66.16
73457;BME280;61691;53.072;6.582;2023-08-31T07:04:09;100746.13;;;22.15;64.29
73457;BME280;61691;53.072;6.582;2023-08-31T07:06:35;100725.81;;;22.50;62.64
73457;BME280;61691;53.072;6.582;2023-08-31T07:09:03;100743.53;;;23.15;60.65
73457;BME280;61691;53.072;6.582;2023-08-31T07:11:32;100697.19;;;23.37;58.67
73457;BME280;61691;53.072;6.582;2023-08-31T07:13:59;100753.25;;;24.16;57.28
73457;BME280;61691;53.072;6.582;2023-08-31T07:16:26;100760.78;;;24.68;55.06
73457;BME280;61691;53.072;6.582;2023-08-31T07:18:53;100758.50;;;25.14;52.96
73457;BME280;61691;53.072;6.582;2023-08-31T07:21:20;100769.72;;;25.70;51.69
73457;BME280;61691;53.072;6.582;2023-08-31T07:23:47;100764.25;;;26.17;48.93
73457;BME280;61691;53.072;6.582;2023-08-31T07:26:15;100752.38;;;26.46;47.42
73457;BME280;61691;53.072;6.582;2023-08-31T07:28:42;100763.78;;;27.00;45.44
73457;BME280;61691;53.072;6.582;2023-08-31T07:31:09;100750.16;;;27.28;43.78
73457;BME280;61691;53.072;6.582;2023-08-31T07:33:36;100764.19;;;27.54;42.10
73457;BME280;61691;53.072;6.582;2023-08-31T07:36:04;100763.38;;;27.70;40.93
73457;BME280;61691;53.072;6.582;2023-08-31T07:38:32;100762.69;;;27.96;40.22
73457;BME280;61691;53.072;6.582;2023-08-31T07:41:00;100775.13;;;28.26;39.64
73457;BME280;61691;53.072;6.582;2023-08-31T07:43:26;100774.34;;;28.52;38.45
73457;BME280;61691;53.072;6.582;2023-08-31T07:45:53;100776.31;;;28.78;37.82
73457;BME280;61691;53.072;6.582;2023-08-31T07:48:20;100772.19;;;29.03;37.51
73457;BME280;61691;53.072;6.582;2023-08-31T07:50:48;100774.66;;;29.31;36.59
73457;BME280;61691;53.072;6.582;2023-08-31T07:53:15;100767.97;;;29.44;36.29
73457;BME280;61691;53.072;6.582;2023-08-31T07:55:53;100788.88;;;29.60;35.86
73457;BME280;61691;53.072;6.582;2023-08-31T07:58:22;100782.84;;;29.63;35.61
73457;BME280;61691;53.072;6.582;2023-08-31T08:00:49;100782.09;;;29.68;34.67
73457;BME280;61691;53.072;6.582;2023-08-31T08:03:15;100789.84;;;29.81;34.76
73457;BME280;61691;53.072;6.582;2023-08-31T08:05:43;100786.53;;;29.79;34.24
73457;BME280;61691;53.072;6.582;2023-08-31T08:08:09;100776.66;;;29.73;34.48
73457;BME280;61691;53.072;6.582;2023-08-31T08:10:36;100760.75;;;29.64;34.11
73457;BME280;61691;53.072;6.582;2023-08-31T08:13:04;100757.31;;;29.47;34.52
73457;BME280;61691;53.072;6.582;2023-08-31T08:15:31;100753.56;;;29.21;33.92
73457;BME280;61691;53.072;6.582;2023-08-31T08:17:58;100772.00;;;29.09;34.97
73457;BME280;61691;53.072;6.582;2023-08-31T08:20:25;100785.47;;;28.72;35.30
73457;BME280;61691;53.072;6.582;2023-08-31T08:22:52;100786.56;;;28.28;35.49
73457;BME280;61691;53.072;6.582;2023-08-31T08:25:19;100789.97;;;27.63;36.32
73457;BME280;61691;53.072;6.582;2023-08-31T08:27:47;100795.13;;;27.03;37.68
73457;BME280;61691;53.072;6.582;2023-08-31T08:30:14;100764.03;;;26.30;39.10
73457;BME280;61691;53.072;6.582;2023-08-31T08:32:42;100795.44;;;26.03;39.54
73457;BME280;61691;53.072;6.582;2023-08-31T08:35:09;100757.38;;;25.33;40.18
73457;BME280;61691;53.072;6.582;2023-08-31T08:37:36;100800.34;;;25.06;41.63
73457;BME280;61691;53.072;6.582;2023-08-31T08:40:03;100786.63;;;24.53;41.64
73457;BME280;61691;53.072;6.582;2023-08-31T08:42:32;100768.63;;;24.04;42.71
73457;BME280;61691;53.072;6.582;2023-08-31T08:45:01;100754.47;;;23.59;43.45
73457;BME280;61691;53.072;6.582;2023-08-31T08:47:28;100748.09;;;23.22;44.30
73457;BME280;61691;53.072;6.582;2023-08-31T08:49:57;100792.22;;;23.15;45.40
73457;BME280;61691;53.072;6.582;2023-08-31T08:52:24;100788.69;;;22.84;45.83
73457;BME280;61691;53.072;6.582;2023-08-31T08:54:52;100790.59;;;22.63;46.64
73457;BME280;61691;53.072;6.582;2023-08-31T08:57:19;100810.25;;;22.39;46.75
73457;BME280;61691;53.072;6.582;2023-08-31T08:59:46;100807.59;;;22.13;47.62
73457;BME280;61691;53.072;6.582;2023-08-31T09:02:13;100791.41;;;21.86;47.81
73457;BME280;61691;53.072;6.582;2023-08-31T09:04:40;100798.91;;;21.71;48.15
73457;BME280;61691;53.072;6.582;2023-08-31T09:07:07;100802.00;;;21.55;48.58
73457;BME280;61691;53.072;6.582;2023-08-31T09:09:48;100805.31;;;21.44;48.99
73457;BME280;61691;53.072;6.582;2023-08-31T09:12:17;100808.38;;;21.28;49.20
73457;BME280;61691;53.072;6.582;2023-08-31T09:14:55;100819.94;;;21.08;49.61
73457;BME280;61691;53.072;6.582;2023-08-31T09:17:23;100835.75;;;20.64;50.36
73457;BME280;61691;53.072;6.582;2023-08-31T09:20:02;100867.69;;;20.39;49.89
73457;BME280;61691;53.072;6.582;2023-08-31T09:22:32;100829.09;;;19.48;49.88
73457;BME280;61691;53.072;6.582;2023-08-31T09:24:59;100797.00;;;18.68;50.71
73457;BME280;61691;53.072;6.582;2023-08-31T09:27:26;100850.16;;;18.58;51.90
73457;BME280;61691;53.072;6.582;2023-08-31T09:29:54;100823.84;;;18.09;52.73
73457;BME280;61691;53.072;6.582;2023-08-31T09:32:21;100829.72;;;17.90;53.38
73457;BME280;61691;53.072;6.582;2023-08-31T09:34:48;100840.25;;;17.77;54.14
73457;BME280;61691;53.072;6.582;2023-08-31T09:37:24;100852.03;;;17.68;55.10
73457;BME280;61691;53.072;6.582;2023-08-31T09:39:51;100841.03;;;17.63;55.82
73457;BME280;61691;53.072;6.582;2023-08-31T09:42:20;100854.66;;;17.76;56.89
73457;BME280;61691;53.072;6.582;2023-08-31T09:44:49;100855.69;;;17.90;58.18
73457;BME280;61691;53.072;6.582;2023-08-31T09:47:17;100865.09;;;18.08;58.89
73457;BME280;61691;53.072;6.582;2023-08-31T09:49:45;100842.88;;;18.14;59.75
73457;BME280;61691;53.072;6.582;2023-08-31T09:52:13;100809.75;;;18.07;60.01
73457;BME280;61691;53.072;6.582;2023-08-31T09:54:41;100846.59;;;18.43;60.62
73457;BME280;61691;53.072;6.582;2023-08-31T09:57:10;100839.09;;;18.53;61.07
73457;BME280;61691;53.072;6.582;2023-08-31T09:59:39;100852.44;;;18.76;61.62
73457;BME280;61691;53.072;6.582;2023-08-31T10:02:06;100856.78;;;18.91;61.89
73457;BME280;61691;53.072;6.582;2023-08-31T10:04:34;100854.91;;;19.07;62.06
73457;BME280;61691;53.072;6.582;2023-08-31T10:07:04;100838.69;;;19.00;62.15
73457;BME280;61691;53.072;6.582;2023-08-31T10:09:32;100853.59;;;19.03;62.08
73457;BME280;61691;53.072;6.582;2023-08-31T10:11:59;100857.69;;;18.99;62.17
73457;BME280;61691;53.072;6.582;2023-08-31T10:14:27;100840.66;;;18.91;62.35
73457;BME280;61691;53.072;6.582;2023-08-31T10:16:55;100847.41;;;18.87;62.58
73457;BME280;61691;53.072;6.582;2023-08-31T10:19:25;100840.88;;;18.75;62.83
73457;BME280;61691;53.072;6.582;2023-08-31T10:21:52;100869.66;;;18.81;63.04
73457;BME280;61691;53.072;6.582;2023-08-31T10:27:25;100864.69;;;18.78;63.79
73457;BME280;61691;53.072;6.582;2023-08-31T10:29:52;100865.84;;;18.90;64.09
73457;BME280;61691;53.072;6.582;2023-08-31T10:32:19;100870.63;;;19.10;64.76
73457;BME280;61691;53.072;6.582;2023-08-31T10:35:18;100867.59;;;19.34;64.76
73457;BME280;61691;53.072;6.582;2023-08-31T10:37:45;100858.75;;;19.40;64.36
73457;BME280;61691;53.072;6.582;2023-08-31T10:40:12;100856.06;;;19.40;64.42
73457;BME280;61691;53.072;6.582;2023-08-31T10:42:46;100839.88;;;19.33;64.34
73457;BME280;61691;53.072;6.582;2023-08-31T10:45:13;100835.72;;;19.31;63.64
73457;BME280;61691;53.072;6.582;2023-08-31T10:47:41;100843.53;;;19.26;63.45
73457;BME280;61691;53.072;6.582;2023-08-31T10:50:22;100850.97;;;19.24;63.39
73457;BME280;61691;53.072;6.582;2023-08-31T10:52:49;100861.59;;;19.32;63.21
73457;BME280;61691;53.072;6.582;2023-08-31T10:55:16;100836.09;;;19.07;62.32
73457;BME280;61691;53.072;6.582;2023-08-31T10:57:43;100860.03;;;19.23;62.41
73457;BME280;61691;53.072;6.582;2023-08-31T11:00:10;100862.63;;;19.31;61.76
73457;BME280;61691;53.072;6.582;2023-08-31T11:02:42;100857.19;;;19.46;61.85
73457;BME280;61691;53.072;6.582;2023-08-31T11:05:12;100852.78;;;19.59;60.25
73457;BME280;61691;53.072;6.582;2023-08-31T11:07:43;100837.53;;;19.66;61.03
73457;BME280;61691;53.072;6.582;2023-08-31T11:10:17;100844.94;;;19.86;60.50
73457;BME280;61691;53.072;6.582;2023-08-31T11:12:50;100847.59;;;20.07;59.92
73457;BME280;61691;53.072;6.582;2023-08-31T11:15:22;100848.94;;;20.24;60.33
73457;BME280;61691;53.072;6.582;2023-08-31T11:17:50;100856.59;;;20.48;59.79
73457;BME280;61691;53.072;6.582;2023-08-31T11:20:18;100860.38;;;20.61;58.93
73457;BME280;61691;53.072;6.582;2023-08-31T11:22:47;100859.16;;;20.63;57.78
73457;BME280;61691;53.072;6.582;2023-08-31T11:25:17;100872.22;;;20.66;57.49
73457;BME280;61691;53.072;6.582;2023-08-31T11:28:01;100865.75;;;20.61;56.85
73457;BME280;61691;53.072;6.582;2023-08-31T11:30:30;100867.84;;;20.59;56.54
73457;BME280;61691;53.072;6.582;2023-08-31T11:33:07;100866.56;;;20.55;56.56
73457;BME280;61691;53.072;6.582;2023-08-31T11:35:39;100867.19;;;20.57;56.69
73457;BME280;61691;53.072;6.582;2023-08-31T11:38:07;100851.69;;;20.59;56.49
73457;BME280;61691;53.072;6.582;2023-08-31T11:40:35;100864.19;;;20.73;56.31
73457;BME280;61691;53.072;6.582;2023-08-31T11:43:04;100868.31;;;20.75;55.53
73457;BME280;61691;53.072;6.582;2023-08-31T11:45:31;100867.91;;;20.72;55.28
73457;BME280;61691;53.072;6.582;2023-08-31T11:47:58;100877.47;;;20.81;55.84
73457;BME280;61691;53.072;6.582;2023-08-31T11:50:26;100863.13;;;20.67;55.08
73457;BME280;61691;53.072;6.582;2023-08-31T11:52:53;100877.88;;;20.78;54.57
73457;BME280;61691;53.072;6.582;2023-08-31T11:55:20;100880.34;;;20.73;53.35
73457;BME280;61691;53.072;6.582;2023-08-31T11:57:52;100884.53;;;20.82;52.66
73457;BME280;61691;53.072;6.582;2023-08-31T12:00:22;100883.13;;;20.93;52.21
73457;BME280;61691;53.072;6.582;2023-08-31T12:03:01;100878.19;;;21.03;51.88
73457;BME280;61691;53.072;6.582;2023-08-31T12:05:45;100869.09;;;21.10;51.59
73457;BME280;61691;53.072;6.582;2023-08-31T12:08:12;100863.88;;;21.02;51.94
73457;BME280;61691;53.072;6.582;2023-08-31T12:10:40;100867.81;;;21.06;52.10
73457;BME280;61691;53.072;6.582;2023-08-31T12:13:09;100877.34;;;21.02;52.38
73457;BME280;61691;53.072;6.582;2023-08-31T12:15:36;100870.00;;;20.83;52.11
73457;BME280;61691;53.072;6.582;2023-08-31T12:18:10;100885.31;;;20.76;52.32
73457;BME280;61691;53.072;6.582;2023-08-31T12:20:45;100884.00;;;20.59;52.69
73457;BME280;61691;53.072;6.582;2023-08-31T12:23:12;100892.25;;;20.51;53.16
73457;BME280;61691;53.072;6.582;2023-08-31T12:26:08;100919.78;;;20.53;53.46
73457;BME280;61691;53.072;6.582;2023-08-31T12:28:35;100915.25;;;20.32;53.86
73457;BME280;61691;53.072;6.582;2023-08-31T12:31:02;100930.88;;;20.15;54.52
73457;BME280;61691;53.072;6.582;2023-08-31T12:33:28;100936.59;;;20.05;55.23
73457;BME280;61691;53.072;6.582;2023-08-31T12:35:55;100924.81;;;19.85;56.00
73457;BME280;61691;53.072;6.582;2023-08-31T12:38:22;100930.97;;;19.79;56.18
73457;BME280;61691;53.072;6.582;2023-08-31T12:40:49;100915.00;;;19.56;56.65
73457;BME280;61691;53.072;6.582;2023-08-31T12:43:15;100913.09;;;19.50;57.30
73457;BME280;61691;53.072;6.582;2023-08-31T12:45:43;100921.63;;;19.54;57.33
73457;BME280;61691;53.072;6.582;2023-08-31T12:48:10;100913.34;;;19.55;57.48
73457;BME280;61691;53.072;6.582;2023-08-31T12:50:37;100876.38;;;19.43;57.62
73457;BME280;61691;53.072;6.582;2023-08-31T12:53:04;100908.50;;;19.65;57.58
73457;BME280;61691;53.072;6.582;2023-08-31T12:55:30;100918.09;;;19.75;57.67
73457;BME280;61691;53.072;6.582;2023-08-31T12:57:57;100916.06;;;19.77;57.74
73457;BME280;61691;53.072;6.582;2023-08-31T13:00:25;100929.56;;;19.83;58.30
73457;BME280;61691;53.072;6.582;2023-08-31T13:02:52;100918.94;;;19.75;58.56
73457;BME280;61691;53.072;6.582;2023-08-31T13:05:18;100925.34;;;19.74;58.33
73457;BME280;61691;53.072;6.582;2023-08-31T13:07:46;100911.81;;;19.67;58.81